Morada, California
Current Conditions -  °F | °C
As of 5:55 AM on Monday 24 Nov 2014 (Local Time) from KSCK Reporting Station
Clear Clear  
Wind Chill: 36°   Ceiling: Unl
Heat Index: 36°   Visibility: 7mi
Dew Point: 36°   Wind: 0mph
Humidity: 100%   Direction: NA
Pressure: 30.34"   Gusts: NA
Location:  38.0455°N, 121.227°W
Report Text: KSCK 241355Z AUTO 00000KT 7SM CLR 02/02 A3034 RMK AO2 SLP275 T00220022 FZRANO $
Loading
Personal Weather Stations






























Interactive Weather Map New forecast layout! Learn more

10-Day Weather Forecast

Advertisements
Track Severe Weather on mobile